createdAt,value
2018-04-28T00:01:14.383Z,7.13
2018-04-28T00:03:41.036Z,5.87
2018-04-28T00:06:07.674Z,5.80
2018-04-28T00:08:34.413Z,6.30
2018-04-28T00:11:01.050Z,6.30
2018-04-28T00:13:30.945Z,6.37
2018-04-28T00:16:00.366Z,6.90
2018-04-28T00:18:28.028Z,7.50
2018-04-28T00:20:54.665Z,7.03
2018-04-28T00:23:21.404Z,6.50
2018-04-28T00:26:03.562Z,6.10
2018-04-28T00:31:37.739Z,7.00
2018-04-28T00:34:07.449Z,7.20
2018-04-28T00:39:34.841Z,6.90
2018-04-28T00:42:01.460Z,6.80
2018-04-28T00:44:28.903Z,8.47
2018-04-28T00:49:57.110Z,7.93
2018-04-28T00:52:24.669Z,7.30
2018-04-28T00:54:54.294Z,7.70
2018-04-28T01:00:39.495Z,7.30
2018-04-28T01:03:06.840Z,7.10
2018-04-28T01:05:44.601Z,6.90
2018-04-28T01:08:11.360Z,7.13
2018-04-28T01:10:37.979Z,6.70
2018-04-28T01:13:04.634Z,7.30
2018-04-28T01:15:37.962Z,7.30
2018-04-28T01:21:03.667Z,7.00
2018-04-28T01:23:35.011Z,7.10
2018-04-28T01:29:07.279Z,7.53
2018-04-28T01:31:37.522Z,7.53
2018-04-28T01:34:05.061Z,8.03
2018-04-28T01:36:48.409Z,7.63
2018-04-28T01:39:18.041Z,7.43
2018-04-28T01:41:52.742Z,8.37
2018-04-28T01:47:23.088Z,8.57
2018-04-28T01:50:01.778Z,8.63
2018-04-28T01:52:45.023Z,8.77
2018-04-28T01:58:17.635Z,8.57
2018-04-28T02:00:49.080Z,8.10
2018-04-28T02:03:15.819Z,9.07
2018-04-28T02:05:52.390Z,8.90
2018-04-28T02:08:19.130Z,7.83
2018-04-28T02:11:01.332Z,7.90
2018-04-28T02:13:45.770Z,8.60
2018-04-28T02:19:07.427Z,8.53
2018-04-28T02:21:37.958Z,8.00
2018-04-28T02:27:14.238Z,7.87
2018-04-28T02:29:43.640Z,8.40
2018-04-28T02:32:10.256Z,7.90
2018-04-28T02:34:37.939Z,8.07
2018-04-28T02:37:12.972Z,7.70
2018-04-28T02:39:46.676Z,7.80
2018-04-28T02:42:14.235Z,7.80
2018-04-28T02:44:41.693Z,8.13
2018-04-28T02:47:18.363Z,7.27
2018-04-28T02:49:46.947Z,9.07
2018-04-28T02:52:26.383Z,8.13
2018-04-28T02:54:54.967Z,8.53
2018-04-28T02:57:22.426Z,8.30
2018-04-28T03:00:01.383Z,9.47
2018-04-28T03:02:36.895Z,8.70
2018-04-28T03:05:08.347Z,8.83
2018-04-28T03:07:43.743Z,9.53
2018-04-28T03:10:10.323Z,9.30
2018-04-28T03:12:41.059Z,8.20
2018-04-28T03:15:07.593Z,10.00
2018-04-28T03:17:38.735Z,8.87
2018-04-28T03:20:17.762Z,9.10
2018-04-28T03:22:47.125Z,8.73
2018-04-28T03:25:18.590Z,8.73
2018-04-28T03:27:46.992Z,8.97
2018-04-28T03:30:14.470Z,9.53
2018-04-28T03:32:41.087Z,9.50
2018-04-28T03:35:09.259Z,9.10
2018-04-28T03:37:38.662Z,9.33
2018-04-28T03:40:05.404Z,10.13
2018-04-28T03:45:31.546Z,9.20
2018-04-28T03:48:17.859Z,8.40
2018-04-28T03:50:48.068Z,8.73
2018-04-28T03:53:35.424Z,9.00
2018-04-28T03:56:02.026Z,9.63
2018-04-28T03:58:40.931Z,10.17
2018-04-28T04:01:23.358Z,9.30
2018-04-28T04:04:00.030Z,9.50
2018-04-28T04:09:34.265Z,9.87
2018-04-28T04:15:21.401Z,10.10
2018-04-28T04:20:55.755Z,9.57
2018-04-28T04:26:39.806Z,8.93
2018-04-28T04:29:23.033Z,9.07
2018-04-28T04:31:55.974Z,8.60
2018-04-28T04:34:26.343Z,7.37
2018-04-28T04:36:57.280Z,9.00
2018-04-28T04:42:27.421Z,8.97
2018-04-28T04:45:07.063Z,9.13
2018-04-28T04:50:55.234Z,9.13
2018-04-28T04:56:42.671Z,9.80
2018-04-28T04:59:29.379Z,8.23
2018-04-28T05:05:11.090Z,7.23
2018-04-28T05:07:44.496Z,7.97
2018-04-28T05:10:18.889Z,9.10
2018-04-28T05:12:56.193Z,8.10
2018-04-28T05:18:56.235Z,9.70
2018-04-28T05:24:34.871Z,9.10
2018-04-28T05:27:03.249Z,10.40
2018-04-28T05:29:55.682Z,10.13
2018-04-28T05:32:32.984Z,9.83
2018-04-28T05:35:14.567Z,9.87
2018-04-28T05:37:49.192Z,9.30
2018-04-28T05:40:34.777Z,9.90
2018-04-28T05:43:11.450Z,9.47
2018-04-28T05:49:03.188Z,9.20
2018-04-28T05:54:51.451Z,7.73
2018-04-28T05:57:28.209Z,8.37
2018-04-28T06:00:06.749Z,8.13
2018-04-28T06:05:52.246Z,8.40
2018-04-28T06:08:27.891Z,9.10
2018-04-28T06:14:06.501Z,9.73
2018-04-28T06:16:41.047Z,9.87
2018-04-28T06:19:20.073Z,10.10
2018-04-28T06:21:46.597Z,9.20
2018-04-28T06:24:13.860Z,10.67
2018-04-28T06:26:40.497Z,9.30
2018-04-28T06:29:07.134Z,9.67
2018-04-28T06:31:33.879Z,9.40
2018-04-28T06:34:00.512Z,9.67
2018-04-28T06:36:27.047Z,10.00
2018-04-28T06:38:53.684Z,11.10
2018-04-28T06:41:20.320Z,9.60
2018-04-28T06:43:46.772Z,10.10
2018-04-28T06:46:13.389Z,9.73
2018-04-28T06:48:39.904Z,9.97
2018-04-28T06:51:06.609Z,10.67
2018-04-28T06:53:33.077Z,9.87
2018-04-28T06:56:00.451Z,9.67
2018-04-28T06:58:26.987Z,10.67
2018-04-28T07:00:53.739Z,9.43
2018-04-28T07:03:21.183Z,8.90
2018-04-28T07:05:47.823Z,9.60
2018-04-28T07:08:14.333Z,7.73
2018-04-28T07:10:41.742Z,8.03
2018-04-28T07:13:09.165Z,8.70
2018-04-28T07:15:35.905Z,8.40
2018-04-28T07:18:02.440Z,8.27
2018-04-28T07:20:29.185Z,8.53
2018-04-28T07:22:55.918Z,8.43
2018-04-28T07:25:22.427Z,8.37
2018-04-28T07:27:49.092Z,8.87
2018-04-28T07:30:15.614Z,9.20
2018-04-28T07:32:42.145Z,9.50
2018-04-28T07:35:08.696Z,9.30
2018-04-28T07:37:35.333Z,8.57
2018-04-28T07:40:02.893Z,9.30
2018-04-28T07:42:29.530Z,9.13
2018-04-28T07:44:56.273Z,8.20
2018-04-28T07:47:22.785Z,7.80
2018-04-28T07:49:50.057Z,8.60
2018-04-28T07:52:16.585Z,9.00
2018-04-28T07:54:50.294Z,8.47
2018-04-28T07:57:16.932Z,9.27
2018-04-28T07:59:43.466Z,8.23
2018-04-28T08:02:10.124Z,7.67
2018-04-28T08:04:36.638Z,7.93
2018-04-28T08:07:03.872Z,8.07
2018-04-28T08:09:30.427Z,7.17
2018-04-28T08:11:57.065Z,7.10
2018-04-28T08:14:24.036Z,8.03
2018-04-28T08:16:50.645Z,8.07
2018-04-28T08:19:17.282Z,8.93
2018-04-28T08:21:43.922Z,8.43
2018-04-28T08:24:10.555Z,9.17
2018-04-28T08:26:38.110Z,9.20
2018-04-28T08:29:04.752Z,8.90
2018-04-28T08:31:31.493Z,9.10
2018-04-28T08:33:58.026Z,8.53
2018-04-28T08:36:26.507Z,8.10
2018-04-28T08:38:53.251Z,7.97
2018-04-28T08:41:21.728Z,8.10
2018-04-28T08:43:48.262Z,6.70
2018-04-28T08:46:14.797Z,6.90
2018-04-28T08:48:41.845Z,7.23
2018-04-28T08:51:09.307Z,7.50
2018-04-28T08:53:36.655Z,7.23
2018-04-28T08:56:03.189Z,7.90
2018-04-28T08:58:29.827Z,7.37
2018-04-28T09:01:00.170Z,7.40
2018-04-28T09:03:26.663Z,7.30
2018-04-28T09:05:53.321Z,6.93
2018-04-28T09:08:20.575Z,7.50
2018-04-28T09:10:47.212Z,7.13
2018-04-28T09:13:14.569Z,7.20
2018-04-28T09:15:41.922Z,8.37
2018-04-28T09:18:09.657Z,8.23
2018-04-28T09:20:37.037Z,9.03
2018-04-28T09:23:04.400Z,8.87
2018-04-28T09:25:31.848Z,8.20
2018-04-28T09:27:59.207Z,8.20
2018-04-28T09:30:26.556Z,8.90
2018-04-28T09:32:53.197Z,9.50
2018-04-28T09:35:19.829Z,8.13
2018-04-28T09:37:47.188Z,7.77
2018-04-28T09:40:13.925Z,8.10
2018-04-28T09:42:41.280Z,8.17
2018-04-28T09:45:07.916Z,9.13
2018-04-28T09:47:35.873Z,9.30
2018-04-28T09:50:04.263Z,8.87
2018-04-28T09:52:31.618Z,8.70
2018-04-28T09:54:58.970Z,9.70
2018-04-28T09:57:26.288Z,10.77
2018-04-28T09:59:53.065Z,9.80
2018-04-28T10:02:19.812Z,10.60
2018-04-28T10:04:47.263Z,10.43
2018-04-28T10:07:14.615Z,10.83
2018-04-28T10:09:41.969Z,10.63
2018-04-28T10:12:08.605Z,10.97
2018-04-28T10:14:35.244Z,9.90
2018-04-28T10:17:02.598Z,10.80
2018-04-28T10:19:29.235Z,10.60
2018-04-28T10:21:56.590Z,11.07
2018-04-28T10:24:24.046Z,10.80
2018-04-28T10:26:50.682Z,10.10
2018-04-28T10:29:17.320Z,10.63
2018-04-28T10:31:44.674Z,10.67
2018-04-28T10:34:12.131Z,9.40
2018-04-28T10:36:39.485Z,9.60
2018-04-28T10:39:06.795Z,9.60
2018-04-28T10:41:33.374Z,8.60
2018-04-28T10:43:59.996Z,9.60
2018-04-28T10:46:27.366Z,9.87
2018-04-28T10:48:54.720Z,9.20
2018-04-28T10:51:22.074Z,8.73
2018-04-28T10:53:49.474Z,9.37
2018-04-28T10:56:16.271Z,8.97
2018-04-28T10:58:43.711Z,9.20
2018-04-28T11:01:11.081Z,9.83
2018-04-28T11:03:38.435Z,9.17
2018-04-28T11:06:05.790Z,9.43
2018-04-28T11:08:32.529Z,9.50
2018-04-28T11:10:59.887Z,9.40
2018-04-28T11:13:26.622Z,10.50
2018-04-28T11:15:54.079Z,9.90
2018-04-28T11:18:21.416Z,8.50
2018-04-28T11:20:48.792Z,7.93
2018-04-28T11:23:16.141Z,9.40
2018-04-28T11:25:43.480Z,10.07
2018-04-28T11:28:10.114Z,9.30
2018-04-28T11:30:38.306Z,8.63
2018-04-28T11:33:05.596Z,9.83
2018-04-28T11:35:32.276Z,9.57
2018-04-28T11:37:58.833Z,9.03
2018-04-28T11:40:26.294Z,7.70
2018-04-28T11:42:53.594Z,6.67
2018-04-28T11:45:20.280Z,6.70
2018-04-28T11:47:47.022Z,7.27
2018-04-28T11:50:14.476Z,6.50
2018-04-28T11:52:41.113Z,6.67
2018-04-28T11:55:07.789Z,5.10
2018-04-28T11:57:34.388Z,4.90
2018-04-28T12:00:01.027Z,4.87
2018-04-28T12:02:28.377Z,5.17
2018-04-28T12:04:55.017Z,5.77
2018-04-28T12:07:21.759Z,4.93
2018-04-28T12:09:48.395Z,4.33
2018-04-28T12:12:15.134Z,4.73
2018-04-28T12:14:41.715Z,5.10
2018-04-28T12:17:08.306Z,4.93
2018-04-28T12:19:34.942Z,4.60
2018-04-28T12:22:02.296Z,5.00
2018-04-28T12:24:29.754Z,5.03
2018-04-28T12:26:56.391Z,4.37
2018-04-28T12:29:23.029Z,3.70
2018-04-28T12:31:49.666Z,3.93
2018-04-28T12:34:17.122Z,3.40
2018-04-28T12:36:43.865Z,3.70
2018-04-28T12:39:10.473Z,3.60
2018-04-28T12:41:37.127Z,3.10
2018-04-28T12:44:04.490Z,3.50
2018-04-28T12:46:31.844Z,3.60
2018-04-28T12:48:58.482Z,3.90
2018-04-28T12:51:25.939Z,3.40
2018-04-28T12:53:52.576Z,4.30
2018-04-28T12:56:19.316Z,3.80
2018-04-28T12:58:45.952Z,3.70
2018-04-28T13:01:13.408Z,4.30
2018-04-28T13:03:40.762Z,4.37
2018-04-28T13:06:07.616Z,4.27
2018-04-28T13:08:34.246Z,4.30
2018-04-28T13:11:01.596Z,4.60
2018-04-28T13:13:28.235Z,3.90
2018-04-28T13:15:54.849Z,3.83
2018-04-28T13:18:21.509Z,4.13
2018-04-28T13:20:48.130Z,4.90
2018-04-28T13:23:15.501Z,4.23
2018-04-28T13:25:42.343Z,3.80
2018-04-28T13:28:09.799Z,3.83
2018-04-28T13:30:37.156Z,4.57
2018-04-28T13:33:04.613Z,4.07
2018-04-28T13:35:31.556Z,4.30
2018-04-28T13:37:59.012Z,4.33
2018-04-28T13:40:26.672Z,4.40
2018-04-28T13:42:54.128Z,3.97
2018-04-28T13:45:21.481Z,3.40
2018-04-28T13:47:49.470Z,3.43
2018-04-28T13:50:16.073Z,3.97
2018-04-28T13:52:43.442Z,3.97
2018-04-28T13:55:10.799Z,3.80
2018-04-28T13:57:37.536Z,4.37
2018-04-28T14:00:04.992Z,4.13
2018-04-28T14:02:32.449Z,5.00
2018-04-28T14:04:59.804Z,3.60
2018-04-28T14:07:26.440Z,3.03
2018-04-28T14:09:53.772Z,3.83
2018-04-28T14:12:20.433Z,4.40
2018-04-28T14:14:47.764Z,4.17
2018-04-28T14:17:14.423Z,4.30
2018-04-28T14:19:41.778Z,4.00
2018-04-28T14:22:08.393Z,3.77
2018-04-28T14:24:35.054Z,4.50
2018-04-28T14:27:01.947Z,4.00
2018-04-28T14:29:28.495Z,5.10
2018-04-28T14:31:55.169Z,5.23
2018-04-28T14:34:22.522Z,4.40
2018-04-28T14:36:49.367Z,3.73
2018-04-28T14:39:16.207Z,5.17
2018-04-28T14:41:42.946Z,4.00
2018-04-28T14:44:14.504Z,4.37
2018-04-28T14:46:41.677Z,3.80
2018-04-28T14:49:08.285Z,3.60
2018-04-28T14:51:34.923Z,4.30
2018-04-28T14:54:02.461Z,4.90
2018-04-28T14:56:29.835Z,4.00
2018-04-28T14:58:57.061Z,4.43
2018-04-28T15:01:23.827Z,4.30
2018-04-28T15:03:51.591Z,4.07
2018-04-28T15:06:19.968Z,4.10
2018-04-28T15:08:47.325Z,3.70
2018-04-28T15:11:15.089Z,4.90
2018-04-28T15:13:42.032Z,3.40
2018-04-28T15:16:08.771Z,3.80
2018-04-28T15:18:35.616Z,3.23
2018-04-28T15:21:02.253Z,4.10
2018-04-28T15:23:29.730Z,4.70
2018-04-28T15:25:57.266Z,3.70
2018-04-28T15:28:24.025Z,3.90
2018-04-28T15:30:50.792Z,4.10
2018-04-28T15:33:17.484Z,4.20
2018-04-28T15:35:45.042Z,3.20
2018-04-28T15:38:12.502Z,3.50
2018-04-28T15:40:39.854Z,3.20
2018-04-28T15:43:06.490Z,3.60
2018-04-28T15:45:33.813Z,3.30
2018-04-28T15:48:00.790Z,3.60
2018-04-28T15:50:27.720Z,3.40
2018-04-28T15:52:55.191Z,3.77
2018-04-28T15:55:22.055Z,4.30
2018-04-28T15:57:49.372Z,3.70
2018-04-28T16:00:16.027Z,4.33
2018-04-28T16:02:42.705Z,4.20
2018-04-28T16:05:09.299Z,4.30
2018-04-28T16:07:38.187Z,4.60
2018-04-28T16:10:05.031Z,3.90
2018-04-28T16:12:32.384Z,4.13
2018-04-28T16:14:59.910Z,4.40
2018-04-28T16:17:26.477Z,4.20
2018-04-28T16:19:54.241Z,4.00
2018-04-28T16:22:21.597Z,3.70
2018-04-28T16:24:48.937Z,4.00
2018-04-28T16:27:16.420Z,4.20
2018-04-28T16:29:43.044Z,3.97
2018-04-28T16:32:11.397Z,3.53
2018-04-28T16:34:38.264Z,3.77
2018-04-28T16:37:05.619Z,3.93
2018-04-28T16:39:32.958Z,3.80
2018-04-28T16:42:00.325Z,4.10
2018-04-28T16:44:27.681Z,3.73
2018-04-28T16:46:55.036Z,4.47
2018-04-28T16:49:22.388Z,4.20
2018-04-28T16:51:49.008Z,4.70
2018-04-28T16:54:15.665Z,3.63
2018-04-28T16:56:42.303Z,4.50
2018-04-28T16:59:10.459Z,4.10
2018-04-28T17:01:37.214Z,4.50
2018-04-28T17:04:03.854Z,4.53
2018-04-28T17:06:30.582Z,4.30
2018-04-28T17:08:57.927Z,4.97
2018-04-28T17:11:25.300Z,4.73
2018-04-28T17:13:51.896Z,5.17
2018-04-28T17:16:18.675Z,4.87
2018-04-28T17:18:47.053Z,6.27
2018-04-28T17:21:13.796Z,7.60
2018-04-28T17:23:40.432Z,8.70
2018-04-28T17:26:07.993Z,7.40
2018-04-28T17:28:35.330Z,8.10
2018-04-28T17:31:02.802Z,7.10
2018-04-28T17:33:29.440Z,6.77
2018-04-28T17:35:56.180Z,5.87
2018-04-28T17:38:22.815Z,6.13
2018-04-28T17:40:50.276Z,5.87
2018-04-28T17:43:17.630Z,5.53
2018-04-28T17:45:45.090Z,5.90
2018-04-28T17:48:11.724Z,6.07
2018-04-28T17:50:39.487Z,6.27
2018-04-28T17:53:06.313Z,6.13
2018-04-28T17:55:33.685Z,6.00
2018-04-28T17:58:00.325Z,6.10
2018-04-28T18:00:27.675Z,6.07
2018-04-28T18:02:55.096Z,5.93
2018-04-28T18:05:21.772Z,10.33
2018-04-28T18:07:48.410Z,6.70
2018-04-28T18:10:15.971Z,6.70
2018-04-28T18:12:42.709Z,7.43
2018-04-28T18:15:10.930Z,6.27
2018-04-28T18:17:37.725Z,6.20
2018-04-28T18:20:05.283Z,6.20
2018-04-28T18:22:32.123Z,5.70
2018-04-28T18:24:59.583Z,5.47
2018-04-28T18:27:26.427Z,5.83
2018-04-28T18:29:53.058Z,5.33
2018-04-28T18:32:20.504Z,7.93
2018-04-28T18:34:47.973Z,7.73
2018-04-28T18:37:15.437Z,7.17
2018-04-28T18:39:42.172Z,5.97
2018-04-28T18:42:09.735Z,6.37
2018-04-28T18:44:36.575Z,6.03
2018-04-28T18:47:03.616Z,6.33
2018-04-28T18:49:30.479Z,5.83
2018-04-28T18:51:57.207Z,5.00
2018-04-28T18:54:24.047Z,5.67
2018-04-28T18:56:51.089Z,6.30
2018-04-28T18:59:18.438Z,5.63
2018-04-28T19:01:45.081Z,5.50
2018-04-28T19:04:11.716Z,5.23
2018-04-28T19:06:39.686Z,6.13
2018-04-28T19:09:06.430Z,5.47
2018-04-28T19:11:33.055Z,5.87
2018-04-28T19:14:00.423Z,6.07
2018-04-28T19:16:27.865Z,5.90
2018-04-28T19:18:54.487Z,5.67
2018-04-28T19:21:21.961Z,5.10
2018-04-28T19:23:48.596Z,5.40
2018-04-28T19:26:16.258Z,5.40
2018-04-28T19:28:42.896Z,5.57
2018-04-28T19:31:09.473Z,4.83
2018-04-28T19:33:36.169Z,5.83
2018-04-28T19:36:02.811Z,5.50
2018-04-28T19:38:29.444Z,5.50
2018-04-28T19:40:59.051Z,6.10
2018-04-28T19:43:27.245Z,5.50
2018-04-28T19:45:54.681Z,5.40
2018-04-28T19:48:21.320Z,5.80
2018-04-28T19:50:48.169Z,5.47
2018-04-28T19:53:14.899Z,5.63
2018-04-28T19:55:41.538Z,5.47
2018-04-28T19:58:08.175Z,5.40
2018-04-28T20:00:35.367Z,6.80
2018-04-28T20:03:02.474Z,5.73
2018-04-28T20:05:29.842Z,6.03
2018-04-28T20:07:56.567Z,6.20
2018-04-28T20:10:33.956Z,6.83
2018-04-28T20:13:01.311Z,6.60
2018-04-28T20:15:28.871Z,7.10
2018-04-28T20:17:55.490Z,6.60
2018-04-28T20:20:22.042Z,6.53
2018-04-28T20:23:01.066Z,6.77
2018-04-28T20:25:27.812Z,6.37
2018-04-28T20:27:54.737Z,6.53
2018-04-28T20:30:22.930Z,6.50
2018-04-28T20:32:49.565Z,6.67
2018-04-28T20:35:16.717Z,7.03
2018-04-28T20:37:43.868Z,7.73
2018-04-28T20:40:10.587Z,8.00
2018-04-28T20:42:38.572Z,8.90
2018-04-28T20:45:05.502Z,8.07
2018-04-28T20:47:32.851Z,7.80
2018-04-28T20:49:59.509Z,7.27
2018-04-28T20:52:33.924Z,7.90
2018-04-28T20:55:01.800Z,7.10
2018-04-28T20:57:28.432Z,7.70
2018-04-28T20:59:55.095Z,7.50
2018-04-28T21:02:21.705Z,7.27
2018-04-28T21:04:48.220Z,7.40
2018-04-28T21:07:14.877Z,7.80
2018-04-28T21:09:42.351Z,8.03
2018-04-28T21:12:09.163Z,8.10
2018-04-28T21:14:35.812Z,7.50
2018-04-28T21:17:02.451Z,7.90
2018-04-28T21:19:29.908Z,7.60
2018-04-28T21:21:57.363Z,6.93
2018-04-28T21:24:24.718Z,7.30
2018-04-28T21:26:54.119Z,7.23
2018-04-28T21:29:20.757Z,7.20
2018-04-28T21:31:48.093Z,7.00
2018-04-28T21:34:15.271Z,7.17
2018-04-28T21:36:43.090Z,7.03
2018-04-28T21:39:09.764Z,7.33
2018-04-28T21:41:37.117Z,7.27
2018-04-28T21:44:04.676Z,7.20
2018-04-28T21:46:32.257Z,6.90
2018-04-28T21:48:58.872Z,6.40
2018-04-28T21:51:26.228Z,7.17
2018-04-28T21:53:53.993Z,6.60
2018-04-28T21:56:20.629Z,6.97
2018-04-28T21:58:48.393Z,6.70
2018-04-28T22:01:15.683Z,6.63
2018-04-28T22:03:42.280Z,7.17
2018-04-28T22:06:09.639Z,6.63
2018-04-28T22:08:36.271Z,7.50
2018-04-28T22:11:03.625Z,7.00
2018-04-28T22:13:30.467Z,6.80
2018-04-28T22:15:57.823Z,7.53
2018-04-28T22:18:25.176Z,7.70
2018-04-28T22:20:51.793Z,8.60
2018-04-28T22:23:18.428Z,10.27
2018-04-28T22:25:44.988Z,10.30
2018-04-28T22:28:13.140Z,16.13
2018-04-28T22:30:40.615Z,14.20
2018-04-28T22:33:07.978Z,11.57
2018-04-28T22:35:34.607Z,13.13
2018-04-28T22:38:01.963Z,10.70
2018-04-28T22:40:29.315Z,8.23
2018-04-28T22:42:56.669Z,7.27
2018-04-28T22:45:24.001Z,8.00
2018-04-28T22:47:50.664Z,9.57
2018-04-28T22:50:17.994Z,8.57
2018-04-28T22:52:45.370Z,10.03
2018-04-28T22:55:12.702Z,12.10
2018-04-28T22:57:40.079Z,12.37
2018-04-28T23:00:08.356Z,12.20
2018-04-28T23:02:34.991Z,11.07
2018-04-28T23:05:02.326Z,11.60
2018-04-28T23:07:28.877Z,9.90
2018-04-28T23:09:55.516Z,11.13
2018-04-28T23:12:22.132Z,10.23
2018-04-28T23:14:50.305Z,9.90
2018-04-28T23:17:16.948Z,12.10
2018-04-28T23:19:43.612Z,10.40
2018-04-28T23:22:10.240Z,11.07
2018-04-28T23:24:36.876Z,10.10
2018-04-28T23:27:04.231Z,11.23
2018-04-28T23:29:31.789Z,11.30
2018-04-28T23:31:59.144Z,8.97
2018-04-28T23:34:26.601Z,9.60
2018-04-28T23:36:53.943Z,12.20
2018-04-28T23:39:21.310Z,13.03
2018-04-28T23:41:48.969Z,13.50
2018-04-28T23:44:16.312Z,13.73
2018-04-28T23:46:43.679Z,13.60
2018-04-28T23:49:11.033Z,14.10
2018-04-28T23:51:37.670Z,14.37
2018-04-28T23:54:05.024Z,13.77
2018-04-28T23:56:32.377Z,14.77
2018-04-28T23:58:59.835Z,14.83
